createdAt,value
2018-06-30T00:00:25.816Z,0
2018-06-30T00:01:35.659Z,0
2018-06-30T00:02:45.564Z,0
2018-06-30T00:03:55.254Z,0
2018-06-30T00:05:05.396Z,0
2018-06-30T00:06:15.230Z,0
2018-06-30T00:07:25.326Z,0
2018-06-30T00:08:35.420Z,0
2018-06-30T00:09:45.515Z,0
2018-06-30T00:10:55.329Z,0
2018-06-30T00:12:05.426Z,0
2018-06-30T00:13:15.519Z,0
2018-06-30T00:14:25.684Z,0
2018-06-30T00:15:35.811Z,0
2018-06-30T00:16:45.941Z,0
2018-06-30T00:17:56.015Z,0
2018-06-30T00:19:05.564Z,0
2018-06-30T00:20:15.642Z,0
2018-06-30T00:21:25.747Z,0
2018-06-30T00:22:35.838Z,0
2018-06-30T00:23:45.911Z,0
2018-06-30T00:24:55.741Z,0
2018-06-30T00:26:05.566Z,0
2018-06-30T00:27:15.656Z,0
2018-06-30T00:28:25.754Z,0
2018-06-30T00:29:35.578Z,0
2018-06-30T00:30:45.645Z,0
2018-06-30T00:31:55.777Z,0
2018-06-30T00:33:05.606Z,0
2018-06-30T00:34:15.689Z,0
2018-06-30T00:35:25.777Z,0
2018-06-30T00:36:35.852Z,0
2018-06-30T00:37:46.192Z,0
2018-06-30T00:38:56.269Z,0
2018-06-30T00:40:06.105Z,0
2018-06-30T00:41:15.917Z,0
2018-06-30T00:42:25.995Z,0
2018-06-30T00:43:36.069Z,0
2018-06-30T00:44:46.164Z,0
2018-06-30T00:45:56.257Z,0
2018-06-30T00:47:06.048Z,0
2018-06-30T00:48:16.101Z,0
2018-06-30T00:49:26.220Z,0
2018-06-30T00:50:36.297Z,0
2018-06-30T00:51:46.165Z,0
2018-06-30T00:52:55.984Z,0
2018-06-30T00:54:06.057Z,0
2018-06-30T00:55:16.126Z,0
2018-06-30T00:56:26.198Z,0
2018-06-30T00:57:36.010Z,0
2018-06-30T00:58:46.085Z,0
2018-06-30T00:59:55.891Z,0
2018-06-30T01:01:05.972Z,0
2018-06-30T01:02:16.031Z,0
2018-06-30T01:03:26.102Z,0
2018-06-30T01:04:36.254Z,0
2018-06-30T01:05:46.334Z,0
2018-06-30T01:06:56.168Z,0
2018-06-30T01:08:06.239Z,0
2018-06-30T01:09:16.050Z,0
2018-06-30T01:10:26.117Z,0
2018-06-30T01:11:35.928Z,0
2018-06-30T01:12:45.730Z,0
2018-06-30T01:13:55.821Z,0
2018-06-30T01:15:05.894Z,0
2018-06-30T01:16:15.963Z,0
2018-06-30T01:17:26.038Z,0
2018-06-30T01:18:36.138Z,0
2018-06-30T01:19:46.215Z,0
2018-06-30T01:20:56.285Z,0
2018-06-30T01:22:06.391Z,0
2018-06-30T01:23:16.465Z,0
2018-06-30T01:24:26.337Z,0
2018-06-30T01:25:36.405Z,0
2018-06-30T01:26:46.509Z,0
2018-06-30T01:27:56.591Z,0
2018-06-30T01:29:06.673Z,0
2018-06-30T01:30:16.795Z,0
2018-06-30T01:31:26.356Z,0
2018-06-30T01:32:36.167Z,0
2018-06-30T01:33:46.236Z,0
2018-06-30T01:34:56.311Z,0
2018-06-30T01:36:06.370Z,0
2018-06-30T01:37:15.922Z,0
2018-06-30T01:38:25.764Z,0
2018-06-30T01:39:35.565Z,0
2018-06-30T01:40:45.630Z,0
2018-06-30T01:41:55.446Z,0
2018-06-30T01:43:05.518Z,0
2018-06-30T01:44:15.617Z,0
2018-06-30T01:45:25.699Z,0
2018-06-30T01:46:35.569Z,0
2018-06-30T01:47:45.630Z,0
2018-06-30T01:48:55.742Z,0
2018-06-30T01:50:05.597Z,0
2018-06-30T01:51:15.709Z,0
2018-06-30T01:52:25.533Z,0
2018-06-30T01:53:35.620Z,0
2018-06-30T01:54:45.693Z,0
2018-06-30T01:55:55.760Z,0
2018-06-30T01:57:05.314Z,0
2018-06-30T01:58:15.414Z,0
2018-06-30T01:59:25.228Z,0
2018-06-30T02:00:35.302Z,0
2018-06-30T02:01:45.388Z,0
2018-06-30T02:02:55.455Z,0
2018-06-30T02:04:05.512Z,0
2018-06-30T02:05:15.332Z,0
2018-06-30T02:06:25.440Z,0
2018-06-30T02:07:35.502Z,0
2018-06-30T02:08:45.313Z,0
2018-06-30T02:09:55.394Z,0
2018-06-30T02:11:05.459Z,0
2018-06-30T02:12:15.516Z,0
2018-06-30T02:13:25.594Z,0
2018-06-30T02:14:35.674Z,0
2018-06-30T02:15:45.756Z,0
2018-06-30T02:16:55.564Z,4
2018-06-30T02:18:05.643Z,4
2018-06-30T02:19:15.722Z,0
2018-06-30T02:20:25.814Z,0
2018-06-30T02:21:36.002Z,4
2018-06-30T02:22:46.122Z,0
2018-06-30T02:23:56.200Z,4
2018-06-30T02:25:06.021Z,4
2018-06-30T02:26:15.834Z,4
2018-06-30T02:27:25.907Z,4
2018-06-30T02:28:35.822Z,8
2018-06-30T02:29:45.649Z,8
2018-06-30T02:30:55.457Z,8
2018-06-30T02:32:05.537Z,8
2018-06-30T02:33:15.341Z,12
2018-06-30T02:34:25.474Z,8
2018-06-30T02:35:35.289Z,12
2018-06-30T02:36:45.373Z,12
2018-06-30T02:37:55.211Z,20
2018-06-30T02:39:05.232Z,20
2018-06-30T02:40:15.501Z,20
2018-06-30T02:41:25.568Z,28
2018-06-30T02:42:35.660Z,28
2018-06-30T02:43:45.735Z,32
2018-06-30T02:44:55.531Z,36
2018-06-30T02:46:05.970Z,44
2018-06-30T02:47:16.261Z,52
2018-06-30T02:48:26.339Z,56
2018-06-30T02:49:36.465Z,60
2018-06-30T02:50:46.268Z,68
2018-06-30T02:51:56.343Z,80
2018-06-30T02:53:06.160Z,84
2018-06-30T02:54:16.234Z,96
2018-06-30T02:55:26.297Z,104
2018-06-30T02:56:36.359Z,116
2018-06-30T02:57:46.425Z,128
2018-06-30T02:58:56.507Z,140
2018-06-30T03:00:06.597Z,152
2018-06-30T03:01:16.690Z,164
2018-06-30T03:02:26.778Z,180
2018-06-30T03:34:44.110Z,876
2018-06-30T03:35:54.158Z,904
2018-06-30T03:37:04.237Z,936
2018-06-30T03:38:14.041Z,964
2018-06-30T03:39:24.112Z,992
2018-06-30T03:40:34.222Z,1024
2018-06-30T03:41:44.313Z,1052
2018-06-30T03:42:54.390Z,1084
2018-06-30T03:44:04.469Z,1112
2018-06-30T03:45:14.536Z,1136
2018-06-30T03:46:24.648Z,1164
2018-06-30T03:47:34.718Z,1188
2018-06-30T03:48:44.787Z,1212
2018-06-30T03:49:54.848Z,1232
2018-06-30T03:51:04.660Z,1248
2018-06-30T03:52:14.722Z,1284
2018-06-30T03:53:24.793Z,1344
2018-06-30T03:54:34.870Z,1348
2018-06-30T03:55:44.947Z,1372
2018-06-30T03:56:54.776Z,1424
2018-06-30T03:58:04.845Z,1468
2018-06-30T03:59:14.899Z,1508
2018-06-30T04:00:24.718Z,1560
2018-06-30T04:01:34.538Z,1600
2018-06-30T04:02:44.605Z,1632
2018-06-30T04:03:54.144Z,1664
2018-06-30T04:05:03.961Z,1692
2018-06-30T04:06:14.032Z,1712
2018-06-30T04:07:24.094Z,1724
2018-06-30T04:08:34.176Z,1728
2018-06-30T04:09:43.976Z,1672
2018-06-30T04:10:54.046Z,1692
2018-06-30T04:12:04.069Z,1724
2018-06-30T04:13:13.888Z,1768
2018-06-30T04:14:23.955Z,1788
2018-06-30T04:15:34.077Z,1820
2018-06-30T04:16:44.138Z,1868
2018-06-30T04:17:54.199Z,1864
2018-06-30T04:19:04.280Z,1892
2018-06-30T04:20:14.098Z,1972
2018-06-30T04:21:24.185Z,2012
2018-06-30T04:22:33.981Z,2084
2018-06-30T04:23:44.076Z,2136
2018-06-30T04:24:54.143Z,2172
2018-06-30T04:26:04.214Z,2172
2018-06-30T04:27:14.017Z,2176
2018-06-30T04:28:24.097Z,2236
2018-06-30T04:29:34.152Z,2328
2018-06-30T04:30:43.974Z,2404
2018-06-30T04:31:54.038Z,2492
2018-06-30T04:33:03.634Z,2612
2018-06-30T04:34:13.457Z,7932
2018-06-30T04:35:23.251Z,8140
2018-06-30T04:36:33.306Z,8880
2018-06-30T04:37:43.372Z,9108
2018-06-30T04:38:53.229Z,9040
2018-06-30T04:40:03.316Z,9240
2018-06-30T04:41:13.408Z,9012
2018-06-30T04:42:23.476Z,8944
2018-06-30T04:43:33.273Z,8732
2018-06-30T04:44:43.363Z,8544
2018-06-30T04:45:53.450Z,8640
2018-06-30T04:47:03.266Z,8368
2018-06-30T04:48:13.073Z,8004
2018-06-30T04:49:23.180Z,7420
2018-06-30T04:50:32.983Z,7036
2018-06-30T04:51:43.070Z,7272
2018-06-30T04:52:53.151Z,7248
2018-06-30T04:54:03.232Z,3400
2018-06-30T04:55:13.312Z,6376
2018-06-30T04:56:23.385Z,8176
2018-06-30T04:57:33.565Z,7988
2018-06-30T04:58:43.783Z,8408
2018-06-30T04:59:53.837Z,7920
2018-06-30T05:01:03.937Z,8656
2018-06-30T05:02:14.009Z,8756
2018-06-30T05:03:24.095Z,8784
2018-06-30T05:04:34.167Z,8804
2018-06-30T05:05:44.234Z,8472
2018-06-30T05:06:54.062Z,8336
2018-06-30T05:08:04.179Z,8248
2018-06-30T05:09:13.999Z,8764
2018-06-30T05:10:24.065Z,9048
2018-06-30T05:11:33.892Z,8992
2018-06-30T05:12:44.043Z,4036
2018-06-30T05:13:54.255Z,5332
2018-06-30T05:15:04.330Z,4856
2018-06-30T05:16:14.397Z,7436
2018-06-30T05:17:24.467Z,8792
2018-06-30T05:18:34.531Z,8380
2018-06-30T05:19:44.661Z,8292
2018-06-30T05:20:54.716Z,3572
2018-06-30T05:22:04.540Z,3604
2018-06-30T05:23:14.626Z,8976
2018-06-30T05:24:24.714Z,4684
2018-06-30T05:25:34.584Z,3440
2018-06-30T05:26:44.667Z,3432
2018-06-30T05:27:54.477Z,3912
2018-06-30T05:29:04.294Z,3424
2018-06-30T05:30:14.118Z,3036
2018-06-30T05:31:24.194Z,2816
2018-06-30T05:32:34.273Z,2616
2018-06-30T05:33:45.273Z,2536
2018-06-30T05:34:55.102Z,2556
2018-06-30T05:36:04.657Z,2660
2018-06-30T05:37:14.202Z,2760
2018-06-30T05:38:24.257Z,2836
2018-06-30T05:39:34.352Z,2912
2018-06-30T05:40:44.161Z,2920
2018-06-30T05:41:53.976Z,2916
2018-06-30T05:43:04.073Z,3116
2018-06-30T05:44:13.886Z,2836
2018-06-30T05:45:24.210Z,2972
2018-06-30T05:46:34.291Z,3480
2018-06-30T05:47:44.106Z,4772
2018-06-30T05:48:53.948Z,10604
2018-06-30T05:50:04.025Z,10652
2018-06-30T05:51:14.114Z,9456
2018-06-30T05:52:24.181Z,5220
2018-06-30T05:53:34.261Z,10500
2018-06-30T05:54:44.332Z,5004
2018-06-30T05:55:54.422Z,5000
2018-06-30T05:57:04.511Z,5088
2018-06-30T05:58:14.319Z,4780
2018-06-30T05:59:24.320Z,4840
2018-06-30T06:00:34.458Z,5276
2018-06-30T06:01:44.542Z,10872
2018-06-30T06:02:54.608Z,10272
2018-06-30T06:04:04.497Z,10076
2018-06-30T06:05:14.309Z,9696
2018-06-30T06:06:24.380Z,9212
2018-06-30T06:07:34.451Z,4596
2018-06-30T06:08:44.531Z,3872
2018-06-30T06:09:55.173Z,3652
2018-06-30T06:11:05.329Z,3564
2018-06-30T06:12:15.411Z,3964
2018-06-30T06:13:25.510Z,4112
2018-06-30T06:14:35.595Z,4752
2018-06-30T06:15:45.682Z,9336
2018-06-30T06:16:55.502Z,5192
2018-06-30T06:18:05.062Z,4620
2018-06-30T06:19:15.144Z,4008
2018-06-30T06:20:24.968Z,3732
2018-06-30T06:21:35.038Z,3588
2018-06-30T06:22:45.118Z,3632
2018-06-30T06:23:54.929Z,3948
2018-06-30T06:25:05.057Z,4668
2018-06-30T06:26:15.150Z,6272
2018-06-30T06:27:25.311Z,10292
2018-06-30T06:28:35.503Z,9940
2018-06-30T06:29:45.667Z,6524
2018-06-30T06:30:55.738Z,5468
2018-06-30T06:32:05.816Z,6664
2018-06-30T06:33:15.915Z,6880
2018-06-30T06:34:26.010Z,7628
2018-06-30T06:35:35.888Z,9444
2018-06-30T06:36:46.210Z,8136
2018-06-30T06:37:56.002Z,5384
2018-06-30T06:39:06.068Z,4340
2018-06-30T06:40:16.154Z,3484
2018-06-30T06:41:26.235Z,3260
2018-06-30T06:42:36.325Z,2864
2018-06-30T06:43:46.130Z,2816
2018-06-30T06:44:56.228Z,2812
2018-06-30T06:46:06.317Z,2824
2018-06-30T06:47:16.188Z,2732
2018-06-30T06:48:26.255Z,2952
2018-06-30T06:49:36.354Z,3444
2018-06-30T06:50:46.423Z,4044
2018-06-30T06:51:56.228Z,4060
2018-06-30T06:53:06.377Z,4184
2018-06-30T06:54:16.211Z,4352
2018-06-30T06:55:26.285Z,4740
2018-06-30T06:56:36.452Z,5268
2018-06-30T06:57:46.542Z,5804
2018-06-30T06:58:56.614Z,6088
2018-06-30T07:00:06.678Z,6448
2018-06-30T07:01:16.785Z,7044
2018-06-30T07:02:26.888Z,6900
2018-06-30T07:03:37.130Z,8072
2018-06-30T07:04:47.347Z,8284
2018-06-30T07:05:57.432Z,8272
2018-06-30T07:07:07.336Z,7872
2018-06-30T07:08:17.450Z,7524
2018-06-30T07:09:27.522Z,8464
2018-06-30T07:10:37.662Z,7936
2018-06-30T07:11:47.746Z,6740
2018-06-30T07:12:57.564Z,4872
2018-06-30T07:14:07.544Z,4300
2018-06-30T07:15:17.350Z,4116
2018-06-30T07:16:27.427Z,4300
2018-06-30T07:17:37.242Z,4640
2018-06-30T07:18:47.044Z,4832
2018-06-30T07:19:57.142Z,4296
2018-06-30T07:21:07.240Z,3700
2018-06-30T07:22:17.075Z,3324
2018-06-30T07:23:27.154Z,3428
2018-06-30T07:24:37.427Z,4060
2018-06-30T07:25:47.410Z,4820
2018-06-30T07:26:57.480Z,4924
2018-06-30T07:28:07.569Z,4604
2018-06-30T07:29:17.652Z,3852
2018-06-30T07:30:27.737Z,3416
2018-06-30T07:31:37.835Z,2788
2018-06-30T07:32:47.917Z,2320
2018-06-30T07:33:57.999Z,2404
2018-06-30T07:35:07.830Z,2804
2018-06-30T07:36:17.637Z,3108
2018-06-30T07:37:28.058Z,3012
2018-06-30T07:38:37.944Z,2784
2018-06-30T07:39:48.018Z,2632
2018-06-30T07:40:58.118Z,2860
2018-06-30T07:42:08.390Z,3240
2018-06-30T07:43:18.745Z,3452
2018-06-30T07:44:28.908Z,3292
2018-06-30T07:45:39.005Z,2924
2018-06-30T07:46:49.103Z,3264
2018-06-30T07:47:59.186Z,3756
2018-06-30T07:49:09.516Z,3196
2018-06-30T07:50:19.581Z,2580
2018-06-30T07:51:29.805Z,2084
2018-06-30T07:52:39.894Z,2656
2018-06-30T07:53:49.728Z,3584
2018-06-30T07:54:59.545Z,3980
2018-06-30T07:56:09.497Z,3596
2018-06-30T07:57:19.195Z,3116
2018-06-30T07:58:29.295Z,2996
2018-06-30T07:59:39.398Z,3064
2018-06-30T08:00:49.231Z,3496
2018-06-30T08:01:59.344Z,4440
2018-06-30T08:03:09.737Z,4712
2018-06-30T08:04:19.825Z,5160
2018-06-30T08:05:29.935Z,6324
2018-06-30T08:06:40.043Z,6876
2018-06-30T08:07:50.161Z,7016
2018-06-30T08:09:00.274Z,6468
2018-06-30T08:10:10.631Z,5936
2018-06-30T08:11:20.705Z,5788
2018-06-30T08:12:30.541Z,5324
2018-06-30T08:13:40.642Z,4632
2018-06-30T08:14:50.732Z,4396
2018-06-30T08:16:00.581Z,4508
2018-06-30T08:17:10.693Z,4692
2018-06-30T08:18:20.789Z,4804
2018-06-30T08:19:30.589Z,5436
2018-06-30T08:20:40.464Z,5344
2018-06-30T08:21:50.569Z,4604
2018-06-30T08:23:00.662Z,3468
2018-06-30T08:24:10.747Z,2740
2018-06-30T08:25:20.864Z,2692
2018-06-30T08:26:31.015Z,2664
2018-06-30T08:27:41.108Z,2468
2018-06-30T08:28:50.929Z,2208
2018-06-30T08:30:01.010Z,2012
2018-06-30T08:31:11.133Z,1996
2018-06-30T08:32:21.232Z,2064
2018-06-30T08:33:31.330Z,2296
2018-06-30T08:34:41.401Z,2580
2018-06-30T08:35:51.488Z,2992
2018-06-30T08:37:01.568Z,3580
2018-06-30T08:38:11.644Z,3960
2018-06-30T08:39:21.724Z,3828
2018-06-30T08:40:31.804Z,3440
2018-06-30T08:41:41.620Z,3164
2018-06-30T08:42:51.183Z,3072
2018-06-30T08:44:01.271Z,3020
2018-06-30T08:45:11.364Z,3004
2018-06-30T08:46:21.163Z,3048
2018-06-30T08:47:31.291Z,3212
2018-06-30T08:48:41.374Z,3664
2018-06-30T08:49:51.451Z,3716
2018-06-30T08:51:01.560Z,3580
2018-06-30T08:52:11.697Z,3664
2018-06-30T08:53:21.797Z,3696
2018-06-30T08:54:31.625Z,3668
2018-06-30T08:55:42.100Z,3828
2018-06-30T08:56:51.712Z,4224
2018-06-30T08:58:01.811Z,4628
2018-06-30T08:59:11.883Z,4988
2018-06-30T09:00:21.688Z,4936
2018-06-30T09:01:31.773Z,4888
2018-06-30T09:02:41.856Z,4924
2018-06-30T09:03:51.928Z,4972
2018-06-30T09:05:02.003Z,5000
2018-06-30T09:06:12.136Z,4736
2018-06-30T09:07:22.310Z,4364
2018-06-30T09:08:32.152Z,4380
2018-06-30T09:09:42.228Z,4800
2018-06-30T09:10:52.544Z,5196
2018-06-30T09:12:03.075Z,5424
2018-06-30T09:13:13.305Z,5564
2018-06-30T09:14:23.142Z,5536
2018-06-30T09:15:33.245Z,5624
2018-06-30T09:16:43.316Z,5652
2018-06-30T09:17:53.138Z,5836
2018-06-30T09:19:03.226Z,6704
2018-06-30T09:20:13.199Z,7120
2018-06-30T09:21:23.304Z,7284
2018-06-30T09:22:32.844Z,7752
2018-06-30T09:23:42.928Z,9416
2018-06-30T09:24:53.049Z,9292
2018-06-30T09:26:03.191Z,7636
2018-06-30T09:27:13.298Z,7272
2018-06-30T09:28:23.390Z,6724
2018-06-30T09:29:33.484Z,6564
2018-06-30T09:30:43.318Z,9012
2018-06-30T09:31:53.133Z,7396
2018-06-30T09:33:03.211Z,9048
2018-06-30T09:34:13.031Z,8860
2018-06-30T09:35:23.113Z,6288
2018-06-30T09:36:33.208Z,7324
2018-06-30T09:37:43.021Z,7192
2018-06-30T09:38:52.584Z,9636
2018-06-30T09:40:02.666Z,9660
2018-06-30T09:41:12.748Z,9156
2018-06-30T09:42:22.837Z,6620
2018-06-30T09:43:32.926Z,6668
2018-06-30T09:44:43.214Z,6332
2018-06-30T09:45:53.246Z,6096
2018-06-30T09:47:02.806Z,8376
2018-06-30T09:48:12.895Z,7784
2018-06-30T09:49:23.003Z,7160
2018-06-30T09:50:33.078Z,4872
2018-06-30T09:51:43.168Z,5864
2018-06-30T09:52:52.715Z,6288
2018-06-30T09:54:02.522Z,8732
2018-06-30T09:55:12.599Z,6692
2018-06-30T09:56:22.698Z,7492
2018-06-30T09:57:32.535Z,6724
2018-06-30T09:58:42.607Z,7492
2018-06-30T09:59:52.689Z,7108
2018-06-30T10:01:02.754Z,6680
2018-06-30T10:02:12.823Z,9440
2018-06-30T10:03:22.650Z,6380
2018-06-30T10:04:32.517Z,6348
2018-06-30T10:05:42.620Z,6600
2018-06-30T10:06:52.996Z,6688
2018-06-30T10:08:03.319Z,5780
2018-06-30T10:09:13.629Z,5092
2018-06-30T10:10:23.714Z,4824
2018-06-30T10:11:33.543Z,4460
2018-06-30T10:12:43.928Z,4396
2018-06-30T10:13:54.144Z,4472
2018-06-30T10:15:04.236Z,4876
2018-06-30T10:16:14.098Z,5372
2018-06-30T10:17:24.328Z,5216
2018-06-30T10:18:34.177Z,4612
2018-06-30T10:19:44.337Z,4164
2018-06-30T10:20:54.305Z,4104
2018-06-30T10:22:04.585Z,4220
2018-06-30T10:23:14.684Z,5532
2018-06-30T10:24:24.780Z,4440
2018-06-30T10:25:34.645Z,4448
2018-06-30T10:26:44.724Z,7876
2018-06-30T10:27:54.810Z,7124
2018-06-30T10:29:04.893Z,7068
2018-06-30T10:30:14.991Z,7828
2018-06-30T10:31:25.419Z,4196
2018-06-30T10:32:35.493Z,4008
2018-06-30T10:33:45.364Z,3812
2018-06-30T10:34:55.509Z,7248
2018-06-30T10:36:05.611Z,7468
2018-06-30T10:37:15.430Z,7180
2018-06-30T10:38:25.569Z,6660
2018-06-30T10:39:35.666Z,2992
2018-06-30T10:40:45.872Z,3208
2018-06-30T10:41:55.936Z,6040
2018-06-30T10:43:06.077Z,6764
2018-06-30T10:44:15.632Z,6988
2018-06-30T10:45:25.702Z,7116
2018-06-30T10:46:35.860Z,7064
2018-06-30T10:47:45.999Z,3920
2018-06-30T10:48:55.828Z,3612
2018-06-30T10:50:05.939Z,3664
2018-06-30T10:51:16.034Z,6936
2018-06-30T10:52:27.272Z,6748
2018-06-30T10:53:37.748Z,6696
2018-06-30T10:54:47.839Z,3484
2018-06-30T10:55:57.751Z,6368
2018-06-30T10:57:07.841Z,4700
2018-06-30T10:58:17.929Z,4628
2018-06-30T10:59:28.028Z,5400
2018-06-30T11:00:38.150Z,6104
2018-06-30T11:01:48.243Z,5984
2018-06-30T11:02:57.840Z,5896
2018-06-30T11:04:08.159Z,5880
2018-06-30T11:05:18.875Z,5916
2018-06-30T11:06:29.105Z,5892
2018-06-30T11:07:39.189Z,5852
2018-06-30T11:08:49.278Z,5836
2018-06-30T11:09:59.125Z,5760
2018-06-30T11:11:09.640Z,5780
2018-06-30T11:12:19.485Z,5752
2018-06-30T11:13:29.322Z,5764
2018-06-30T11:14:39.164Z,5768
2018-06-30T11:15:49.259Z,5808
2018-06-30T11:16:59.355Z,5820
2018-06-30T11:18:08.928Z,5840
2018-06-30T11:19:18.764Z,5820
2018-06-30T11:20:28.851Z,5832
2018-06-30T11:21:38.951Z,5804
2018-06-30T11:22:49.005Z,5784
2018-06-30T11:23:59.099Z,5752
2018-06-30T11:25:09.003Z,5744
2018-06-30T11:26:19.084Z,5748
2018-06-30T11:27:29.181Z,5760
2018-06-30T11:28:39.073Z,5768
2018-06-30T11:29:49.169Z,5788
2018-06-30T11:30:59.012Z,5756
2018-06-30T11:32:09.109Z,5764
2018-06-30T11:33:18.940Z,5736
2018-06-30T11:34:28.791Z,5784
2018-06-30T11:35:38.626Z,5748
2018-06-30T11:36:48.733Z,5756
2018-06-30T11:37:58.838Z,5796
2018-06-30T11:39:08.964Z,5784
2018-06-30T11:40:19.142Z,5796
2018-06-30T11:41:29.234Z,5796
2018-06-30T11:42:39.333Z,5780
2018-06-30T11:43:49.403Z,5756
2018-06-30T11:44:59.523Z,5768
2018-06-30T11:46:09.627Z,5776
2018-06-30T11:47:19.179Z,5796
2018-06-30T11:48:29.284Z,5800
2018-06-30T11:49:39.104Z,5784
2018-06-30T11:50:49.210Z,5768
2018-06-30T11:51:59.064Z,5756
2018-06-30T11:53:09.224Z,5780
2018-06-30T11:54:19.303Z,5828
2018-06-30T11:55:29.417Z,5820
2018-06-30T11:56:39.492Z,5828
2018-06-30T11:57:49.616Z,5816
2018-06-30T11:58:59.471Z,5816
2018-06-30T12:00:09.809Z,5812
2018-06-30T12:01:19.639Z,5820
2018-06-30T12:02:29.746Z,5832
2018-06-30T12:03:40.228Z,5792
2018-06-30T12:04:50.366Z,5816
2018-06-30T12:06:00.479Z,5872
2018-06-30T12:07:10.561Z,5800
2018-06-30T12:08:20.655Z,5816
2018-06-30T12:09:31.001Z,5760
2018-06-30T12:10:41.160Z,5792
2018-06-30T12:11:51.223Z,5760
2018-06-30T12:13:01.321Z,5804
2018-06-30T12:14:11.439Z,5748
2018-06-30T12:15:21.735Z,5780
2018-06-30T12:16:31.822Z,5748
2018-06-30T12:17:41.918Z,5748
2018-06-30T12:18:52.010Z,5744
2018-06-30T12:20:02.109Z,5720
2018-06-30T12:21:11.953Z,5736
2018-06-30T12:22:22.082Z,5780
2018-06-30T12:23:32.169Z,5748
2018-06-30T12:24:42.260Z,5736
2018-06-30T12:25:52.356Z,5728
2018-06-30T12:27:02.170Z,5708
2018-06-30T12:28:12.001Z,5780
2018-06-30T12:29:21.831Z,5716
2018-06-30T12:30:32.155Z,5712
2018-06-30T12:31:42.262Z,5712
2018-06-30T12:32:52.409Z,5736
2018-06-30T12:34:02.497Z,5688
2018-06-30T12:35:12.899Z,5600
2018-06-30T12:36:22.991Z,5632
2018-06-30T12:37:33.081Z,5680
2018-06-30T12:38:43.180Z,5636
2018-06-30T12:39:53.271Z,5608
2018-06-30T12:41:03.081Z,5600
2018-06-30T12:42:12.927Z,5600
2018-06-30T12:43:23.020Z,5580
2018-06-30T12:44:33.144Z,5580
2018-06-30T12:45:43.283Z,5536
2018-06-30T12:46:53.369Z,5620
2018-06-30T12:48:03.202Z,5580
2018-06-30T12:49:13.315Z,5588
2018-06-30T12:50:23.402Z,5552
2018-06-30T12:51:33.529Z,5536
2018-06-30T12:52:43.606Z,5532
2018-06-30T12:53:53.698Z,5516
2018-06-30T12:55:03.986Z,5492
2018-06-30T12:56:14.362Z,5500
2018-06-30T12:57:24.522Z,5516
2018-06-30T12:58:34.082Z,5480
2018-06-30T12:59:44.184Z,5492
2018-06-30T13:00:54.076Z,5488
2018-06-30T13:02:04.172Z,5444
2018-06-30T13:03:14.281Z,5468
2018-06-30T13:04:24.391Z,5448
2018-06-30T13:05:34.499Z,5448
2018-06-30T13:06:44.593Z,5372
2018-06-30T13:07:54.708Z,5388
2018-06-30T13:09:04.933Z,5400
2018-06-30T13:10:14.752Z,5388
2018-06-30T13:11:24.868Z,5388
2018-06-30T13:12:34.970Z,5360
2018-06-30T13:13:45.054Z,5368
2018-06-30T13:14:55.162Z,5352
2018-06-30T13:16:05.267Z,5328
2018-06-30T13:17:15.363Z,5312
2018-06-30T13:18:25.440Z,5320
2018-06-30T13:19:35.528Z,5308
2018-06-30T13:20:45.683Z,5300
2018-06-30T13:21:55.784Z,5308
2018-06-30T13:23:06.017Z,5284
2018-06-30T13:24:15.609Z,5280
2018-06-30T13:25:25.691Z,5260
2018-06-30T13:26:35.528Z,5244
2018-06-30T13:27:45.659Z,5228
2018-06-30T13:28:56.110Z,5220
2018-06-30T13:30:06.245Z,5200
2018-06-30T13:31:16.345Z,5212
2018-06-30T13:32:26.498Z,5196
2018-06-30T13:33:36.587Z,5212
2018-06-30T13:34:46.426Z,5140
2018-06-30T13:35:56.541Z,5080
2018-06-30T13:37:06.655Z,5084
2018-06-30T13:38:16.500Z,5112
2018-06-30T13:39:26.608Z,5140
2018-06-30T13:40:36.714Z,5100
2018-06-30T13:41:46.866Z,5064
2018-06-30T13:42:56.705Z,5076
2018-06-30T13:44:06.821Z,5036
2018-06-30T13:45:16.645Z,4992
2018-06-30T13:46:26.307Z,5000
2018-06-30T13:47:36.483Z,4996
2018-06-30T13:48:46.589Z,4972
2018-06-30T13:49:56.670Z,5056
2018-06-30T13:51:06.774Z,4956
2018-06-30T13:52:16.616Z,4932
2018-06-30T13:53:26.758Z,4932
2018-06-30T13:54:36.867Z,4904
2018-06-30T13:55:46.956Z,4928
2018-06-30T13:56:57.039Z,4884
2018-06-30T13:58:07.144Z,4860
2018-06-30T13:59:16.710Z,4872
2018-06-30T14:00:26.807Z,4836
2018-06-30T14:01:36.907Z,4828
2018-06-30T14:02:47.026Z,4808
2018-06-30T14:03:57.131Z,4808
2018-06-30T14:05:07.257Z,4832
2018-06-30T14:06:17.442Z,4808
2018-06-30T14:07:27.530Z,4780
2018-06-30T14:08:37.640Z,4748
2018-06-30T14:09:47.735Z,4720
2018-06-30T14:10:57.546Z,4740
2018-06-30T14:12:07.644Z,4740
2018-06-30T14:13:18.060Z,4716
2018-06-30T14:14:27.939Z,4692
2018-06-30T14:15:38.030Z,4688
2018-06-30T14:16:48.120Z,4660
2018-06-30T14:18:17.734Z,4644
2018-06-30T14:19:27.663Z,4624
2018-06-30T14:20:37.757Z,4624
2018-06-30T14:21:47.847Z,4620
2018-06-30T14:22:57.937Z,4600
2018-06-30T14:24:08.095Z,4584
2018-06-30T14:25:17.932Z,4596
2018-06-30T14:26:28.038Z,4560
2018-06-30T14:27:38.114Z,4544
2018-06-30T14:28:48.352Z,4528
2018-06-30T14:29:58.485Z,4516
2018-06-30T14:31:08.587Z,4488
2018-06-30T14:32:18.672Z,4460
2018-06-30T14:33:28.778Z,4432
2018-06-30T14:34:38.907Z,4432
2018-06-30T14:35:49.016Z,4424
2018-06-30T14:36:59.097Z,4428
2018-06-30T14:38:09.213Z,4404
2018-06-30T14:39:19.543Z,4384
2018-06-30T14:40:29.354Z,4372
2018-06-30T14:41:39.429Z,4340
2018-06-30T14:42:49.523Z,4308
2018-06-30T14:43:59.736Z,4292
2018-06-30T14:45:09.827Z,4276
2018-06-30T14:46:19.635Z,4280
2018-06-30T14:47:29.504Z,4252
2018-06-30T14:48:39.322Z,4256
2018-06-30T14:49:49.427Z,4216
2018-06-30T14:50:59.550Z,4192
2018-06-30T14:52:09.369Z,4160
2018-06-30T14:53:19.468Z,4172
2018-06-30T14:54:29.566Z,4156
2018-06-30T14:55:39.647Z,4132
2018-06-30T14:56:49.485Z,4116
2018-06-30T14:57:59.579Z,4104
2018-06-30T14:59:09.686Z,4096
2018-06-30T15:00:19.775Z,4080
2018-06-30T15:01:29.870Z,4052
2018-06-30T15:02:39.692Z,4052
2018-06-30T15:03:49.787Z,4016
2018-06-30T15:04:59.622Z,4004
2018-06-30T15:06:09.717Z,4064
2018-06-30T15:07:19.947Z,4016
2018-06-30T15:08:30.194Z,3988
2018-06-30T15:09:39.759Z,3960
2018-06-30T15:10:49.869Z,3960
2018-06-30T15:11:59.691Z,3924
2018-06-30T15:13:09.708Z,3924
2018-06-30T15:14:19.812Z,3868
2018-06-30T15:15:29.909Z,3880
2018-06-30T15:16:40.854Z,3864
2018-06-30T15:17:50.671Z,3840
2018-06-30T15:19:01.060Z,3836
2018-06-30T15:20:11.161Z,3840
2018-06-30T15:21:21.264Z,3804
2018-06-30T15:22:31.358Z,3816
2018-06-30T15:23:41.440Z,3788
2018-06-30T15:24:51.600Z,3780
2018-06-30T15:26:01.711Z,3756
2018-06-30T15:27:11.787Z,3732
2018-06-30T15:28:21.633Z,3716
2018-06-30T15:29:31.489Z,3720
2018-06-30T15:30:41.581Z,3728
2018-06-30T15:31:51.670Z,3708
2018-06-30T15:33:01.498Z,3684
2018-06-30T15:34:11.324Z,3676
2018-06-30T15:35:21.148Z,3664
2018-06-30T15:36:31.272Z,3628
2018-06-30T15:37:41.367Z,3620
2018-06-30T15:38:51.172Z,3604
2018-06-30T15:40:01.250Z,3576
2018-06-30T15:41:11.322Z,3548
2018-06-30T15:42:21.452Z,3576
2018-06-30T15:43:31.525Z,3572
2018-06-30T15:44:41.613Z,3560
2018-06-30T15:45:51.711Z,3536
2018-06-30T15:47:01.791Z,3512
2018-06-30T15:48:11.913Z,3504
2018-06-30T15:49:21.979Z,3512
2018-06-30T15:50:32.091Z,3460
2018-06-30T15:51:42.192Z,3448
2018-06-30T15:52:52.275Z,3428
2018-06-30T15:54:02.584Z,3432
2018-06-30T15:55:12.405Z,3416
2018-06-30T15:56:22.484Z,3408
2018-06-30T15:57:32.312Z,3456
2018-06-30T15:58:42.139Z,3432
2018-06-30T15:59:52.219Z,3432
2018-06-30T16:01:02.033Z,3400
2018-06-30T16:02:12.115Z,3348
2018-06-30T16:03:21.931Z,3312
2018-06-30T16:04:32.010Z,3296
2018-06-30T16:05:42.083Z,3256
2018-06-30T16:06:51.911Z,3232
2018-06-30T16:08:02.009Z,3204
2018-06-30T16:09:12.149Z,3204
2018-06-30T16:10:22.227Z,3180
2018-06-30T16:11:32.312Z,3156
2018-06-30T16:12:42.150Z,3160
2018-06-30T16:13:51.965Z,3128
2018-06-30T16:15:02.040Z,3104
2018-06-30T16:16:11.858Z,3064
2018-06-30T16:17:21.946Z,3044
2018-06-30T16:18:32.044Z,3024
2018-06-30T16:19:42.131Z,2992
2018-06-30T16:20:52.206Z,2972